Time;durP1;ratioP1;P1;durP2;ratioP2;P2;SDS_P1;SDS_P2;PMS_P1;PMS_P2;Temp;Humidity;BMP_temperature;BMP_pressure;BME280_temperature;BME280_humidity;BME280_pressure;Samples;Min_cycle;Max_cycle;Signal;HPM_P1;HPM_P2
2023/03/25 00:02:12;;;;;;;5.37;3.70;;;11.80;99.90;;;;;;4432895;28;658210;-66
2023/03/25 00:04:59;;;;;;;6.20;3.40;;;11.80;99.90;;;;;;4405567;28;658213;-66
2023/03/25 00:07:48;;;;;;;9.13;4.10;;;11.80;99.90;;;;;;4401420;28;657729;-66
2023/03/25 00:10:35;;;;;;;6.83;3.67;;;11.70;99.90;;;;;;4404232;28;657786;-66
2023/03/25 00:13:22;;;;;;;7.87;4.30;;;11.70;99.90;;;;;;4427224;28;658739;-66
2023/03/25 00:16:10;;;;;;;7.30;3.90;;;11.70;99.90;;;;;;4417132;28;657913;-66
2023/03/25 00:19:00;;;;;;;8.67;4.17;;;11.60;99.90;;;;;;4442777;28;658137;-66
2023/03/25 00:21:49;;;;;;;7.23;3.87;;;11.70;99.90;;;;;;4416321;28;658708;-66
2023/03/25 00:24:36;;;;;;;11.40;4.30;;;11.60;99.90;;;;;;4414511;28;657776;-67
2023/03/25 00:27:23;;;;;;;7.35;3.78;;;11.60;99.90;;;;;;4428723;28;659732;-66
2023/03/25 00:30:11;;;;;;;7.90;4.20;;;11.60;99.90;;;;;;4402908;28;658036;-66
2023/03/25 00:33:00;;;;;;;6.80;4.03;;;11.60;99.90;;;;;;4424279;28;658431;-66
2023/03/25 00:35:53;;;;;;;8.83;3.97;;;11.60;99.90;;;;;;4400748;28;659010;-66
2023/03/25 00:38:42;;;;;;;6.30;3.97;;;11.60;99.90;;;;;;4383830;28;657385;-66
2023/03/25 00:41:29;;;;;;;9.43;4.00;;;11.50;99.90;;;;;;4423507;28;657694;-66
2023/03/25 00:44:17;;;;;;;8.07;4.00;;;11.50;99.90;;;;;;4409934;28;657882;-66
2023/03/25 00:47:04;;;;;;;8.27;3.60;;;11.50;99.90;;;;;;4429410;28;657123;-66
2023/03/25 00:49:51;;;;;;;6.88;3.22;;;11.50;99.90;;;;;;4415827;28;657592;-66
2023/03/25 00:52:40;;;;;;;5.83;3.43;;;11.50;99.90;;;;;;4426717;28;658344;-66
2023/03/25 00:55:27;;;;;;;8.13;3.70;;;11.50;99.90;;;;;;4408761;28;658455;-66
2023/03/25 00:58:14;;;;;;;6.23;3.30;;;11.40;99.90;;;;;;4426878;28;658034;-66
2023/03/25 01:01:09;;;;;;;5.40;3.23;;;11.40;99.90;;;;;;4419386;28;658531;-66
2023/03/25 01:04:00;;;;;;;8.53;3.33;;;11.30;99.90;;;;;;4395604;28;658074;-66
2023/03/25 01:06:50;;;;;;;6.07;3.10;;;11.30;99.90;;;;;;4421819;28;657428;-66
2023/03/25 01:09:40;;;;;;;6.73;3.23;;;11.40;99.90;;;;;;4405968;28;658625;-67
2023/03/25 01:12:28;;;;;;;8.20;3.67;;;11.40;99.90;;;;;;4397796;28;657990;-66
2023/03/25 01:15:15;;;;;;;6.43;3.87;;;11.40;99.90;;;;;;4420006;28;657591;-67
2023/03/25 01:18:02;;;;;;;6.07;3.40;;;11.40;99.90;;;;;;4425114;28;658357;-66
2023/03/25 01:20:50;;;;;;;9.63;3.80;;;11.40;99.90;;;;;;4430374;28;657485;-66
2023/03/25 01:23:38;;;;;;;6.07;3.70;;;11.40;99.90;;;;;;4431309;28;659067;-66
2023/03/25 01:26:27;;;;;;;6.97;3.50;;;11.30;99.90;;;;;;4428744;28;657895;-67
2023/03/25 01:29:15;;;;;;;7.03;4.30;;;11.30;99.90;;;;;;4435046;28;657492;-66
2023/03/25 01:32:03;;;;;;;7.17;4.60;;;11.30;99.90;;;;;;4415771;28;658960;-66
2023/03/25 01:34:50;;;;;;;7.23;4.00;;;11.20;99.90;;;;;;4410694;28;657799;-67
2023/03/25 01:37:37;;;;;;;8.87;4.60;;;11.20;99.90;;;;;;4432543;28;658617;-67
2023/03/25 01:40:26;;;;;;;15.77;5.57;;;11.20;99.90;;;;;;4422240;28;657425;-66
2023/03/25 01:43:14;;;;;;;8.70;5.03;;;11.20;99.90;;;;;;4425202;28;659725;-66
2023/03/25 01:46:01;;;;;;;10.70;5.80;;;11.20;99.90;;;;;;4419623;28;657300;-67
2023/03/25 01:48:49;;;;;;;10.57;5.13;;;11.20;99.90;;;;;;4439731;28;659474;-67
2023/03/25 01:51:38;;;;;;;10.67;5.40;;;11.20;99.90;;;;;;4415285;28;659812;-67
2023/03/25 01:54:26;;;;;;;10.60;6.27;;;11.20;99.90;;;;;;4418933;28;658620;-66
2023/03/25 01:57:16;;;;;;;11.10;6.43;;;11.20;99.90;;;;;;4439445;28;659894;-66
2023/03/25 02:00:08;;;;;;;10.47;6.60;;;11.20;99.90;;;;;;4412035;28;658883;-67
2023/03/25 02:02:58;;;;;;;11.30;6.10;;;11.20;99.90;;;;;;4399134;28;659541;-66
2023/03/25 02:05:48;;;;;;;9.93;5.93;;;11.20;99.90;;;;;;4421314;28;658807;-66
2023/03/25 02:08:38;;;;;;;12.60;5.93;;;11.20;99.90;;;;;;4416285;28;658021;-67
2023/03/25 02:11:28;;;;;;;14.00;8.50;;;11.20;99.90;;;;;;4417455;28;658459;-66
2023/03/25 02:14:16;;;;;;;14.13;8.57;;;11.20;99.90;;;;;;4431972;28;658820;-66
2023/03/25 02:17:09;;;;;;;14.98;9.43;;;11.20;99.90;;;;;;4436776;28;659475;-66
2023/03/25 02:20:29;;;;;;;15.63;9.63;;;11.20;99.90;;;;;;4417887;28;658964;-66
2023/03/25 02:23:46;;;;;;;14.00;8.73;;;11.20;99.90;;;;;;4418452;28;658426;-66
2023/03/25 02:27:12;;;;;;;15.53;8.50;;;11.20;99.90;;;;;;4414234;28;658917;-66
2023/03/25 02:30:30;;;;;;;15.33;8.57;;;11.20;99.90;;;;;;4370933;28;658427;-67
2023/03/25 02:33:34;;;;;;;14.27;8.37;;;11.20;99.90;;;;;;4391485;28;659563;-66
2023/03/25 02:36:49;;;;;;;16.40;10.27;;;11.00;99.90;;;;;;4411851;28;658698;-66
2023/03/25 02:39:39;;;;;;;14.77;8.87;;;10.90;99.90;;;;;;4414771;28;659553;-67
2023/03/25 02:42:28;;;;;;;15.30;9.30;;;10.90;99.90;;;;;;4417869;28;658502;-66
2023/03/25 02:45:18;;;;;;;18.87;10.10;;;10.90;99.90;;;;;;4416095;28;658929;-66
2023/03/25 02:48:07;;;;;;;15.77;9.50;;;10.80;99.90;;;;;;4426936;28;659488;-67
2023/03/25 02:50:56;;;;;;;14.27;8.40;;;10.80;99.90;;;;;;4434486;28;659641;-66
2023/03/25 02:53:44;;;;;;;12.03;6.00;;;10.80;99.90;;;;;;4412615;28;659229;-66
2023/03/25 02:56:33;;;;;;;9.38;5.00;;;10.70;99.90;;;;;;4420258;28;659299;-66
2023/03/25 02:59:21;;;;;;;8.40;4.43;;;10.70;99.90;;;;;;4424499;28;657381;-67
2023/03/25 03:02:09;;;;;;;8.47;4.30;;;10.70;99.90;;;;;;4438684;28;658478;-66
2023/03/25 03:04:56;;;;;;;6.87;4.00;;;10.60;99.90;;;;;;4414286;28;657858;-66
2023/03/25 03:07:43;;;;;;;5.50;3.40;;;10.70;99.90;;;;;;4438535;28;658787;-66
2023/03/25 03:10:32;;;;;;;8.07;2.80;;;10.70;99.90;;;;;;4419285;28;657250;-66
2023/03/25 03:13:25;;;;;;;5.77;3.10;;;10.60;99.90;;;;;;4441441;28;657275;-67
2023/03/25 03:16:15;;;;;;;5.60;2.40;;;10.60;99.90;;;;;;4417907;28;658147;-66
2023/03/25 03:19:07;;;;;;;4.17;2.43;;;10.60;99.90;;;;;;4412717;28;657650;-66
2023/03/25 03:21:59;;;;;;;5.67;2.70;;;10.50;99.90;;;;;;4413424;28;658480;-66
2023/03/25 03:24:47;;;;;;;5.33;2.67;;;10.50;99.90;;;;;;4420297;28;657940;-66
2023/03/25 03:27:37;;;;;;;5.27;2.93;;;10.40;99.90;;;;;;4433809;28;657839;-66
2023/03/25 03:30:31;;;;;;;8.50;3.17;;;10.30;99.90;;;;;;4444772;28;658223;-66
2023/03/25 03:33:20;;;;;;;9.27;3.17;;;10.30;99.90;;;;;;4415820;28;657867;-66
2023/03/25 03:36:08;;;;;;;5.27;3.37;;;10.20;99.90;;;;;;4415594;28;658515;-66
2023/03/25 03:38:58;;;;;;;8.27;3.40;;;10.10;99.90;;;;;;4421886;28;659213;-67
2023/03/25 03:41:46;;;;;;;5.22;3.25;;;9.90;99.90;;;;;;4426300;28;657044;-67
2023/03/25 03:44:34;;;;;;;8.77;3.23;;;9.70;99.90;;;;;;4440846;28;657457;-67
2023/03/25 03:47:25;;;;;;;9.03;3.40;;;9.60;99.90;;;;;;4414569;28;657247;-67
2023/03/25 03:50:14;;;;;;;7.70;3.50;;;9.50;99.90;;;;;;4420937;28;657288;-66
2023/03/25 03:53:04;;;;;;;6.07;3.00;;;9.40;99.90;;;;;;4421849;28;656906;-66
2023/03/25 03:55:52;;;;;;;4.93;2.90;;;9.30;99.90;;;;;;4419667;28;656661;-66
2023/03/25 03:58:41;;;;;;;7.30;3.10;;;9.20;99.90;;;;;;4438945;28;656934;-66
2023/03/25 04:01:33;;;;;;;7.33;3.10;;;9.10;99.90;;;;;;4438639;28;658524;-66
2023/03/25 04:04:25;;;;;;;7.57;3.23;;;8.90;99.90;;;;;;4392790;28;656599;-66
2023/03/25 04:07:14;;;;;;;9.43;3.20;;;8.80;99.90;;;;;;4415254;28;657408;-66
2023/03/25 04:10:05;;;;;;;6.67;2.97;;;8.70;99.90;;;;;;4415183;28;656878;-66
2023/03/25 04:12:52;;;;;;;8.73;3.40;;;8.70;99.90;;;;;;4417256;28;657729;-67
2023/03/25 04:15:40;;;;;;;8.67;3.40;;;8.80;99.90;;;;;;4435967;28;656879;-67
2023/03/25 04:18:28;;;;;;;8.60;3.50;;;8.70;99.90;;;;;;4437791;28;657513;-67
2023/03/25 04:21:17;;;;;;;8.07;3.93;;;8.70;99.90;;;;;;4421903;28;656948;-67
2023/03/25 04:24:07;;;;;;;7.97;3.70;;;8.60;99.90;;;;;;4442114;28;656782;-67
2023/03/25 04:26:56;;;;;;;7.07;3.90;;;8.60;99.90;;;;;;4414085;28;656465;-66
2023/03/25 04:29:43;;;;;;;12.38;4.13;;;8.50;99.90;;;;;;4416679;28;657378;-67
2023/03/25 04:32:31;;;;;;;10.43;4.20;;;8.50;99.90;;;;;;4416953;28;657819;-66
2023/03/25 04:35:18;;;;;;;9.00;4.20;;;8.50;99.90;;;;;;4434133;28;658270;-66
2023/03/25 04:38:07;;;;;;;8.33;4.13;;;8.50;99.90;;;;;;4420314;28;656743;-67
2023/03/25 04:40:54;;;;;;;8.73;4.47;;;8.50;99.90;;;;;;4440074;28;656916;-66
2023/03/25 04:43:44;;;;;;;7.60;4.20;;;8.50;99.90;;;;;;4419550;28;656166;-66
2023/03/25 04:46:32;;;;;;;9.10;3.70;;;8.30;99.90;;;;;;4414961;28;656313;-66
2023/03/25 04:49:19;;;;;;;9.70;4.13;;;8.20;99.90;;;;;;4435981;28;656637;-66
2023/03/25 04:52:08;;;;;;;9.93;3.93;;;8.30;99.90;;;;;;4418911;28;657373;-66
2023/03/25 04:54:57;;;;;;;7.67;3.63;;;8.30;99.90;;;;;;4431143;28;656787;-66
2023/03/25 04:57:45;;;;;;;7.80;4.20;;;8.30;99.90;;;;;;4444705;28;656552;-67
2023/03/25 05:00:32;;;;;;;10.00;4.33;;;8.30;99.90;;;;;;4416859;28;656441;-66
2023/03/25 05:03:22;;;;;;;9.93;4.40;;;8.20;99.90;;;;;;4434257;28;657894;-67
2023/03/25 05:06:10;;;;;;;9.83;4.80;;;8.20;99.90;;;;;;4440013;28;656610;-67
2023/03/25 05:08:57;;;;;;;10.17;4.90;;;8.20;99.90;;;;;;4441093;28;656322;-66
2023/03/25 05:11:46;;;;;;;8.60;4.60;;;8.20;99.90;;;;;;4432308;28;657939;-66
2023/03/25 05:14:33;;;;;;;9.37;4.67;;;8.20;99.90;;;;;;4417511;28;657315;-66
2023/03/25 05:17:20;;;;;;;13.77;6.43;;;8.30;99.90;;;;;;4414314;28;656495;-67
2023/03/25 05:20:09;;;;;;;15.00;7.37;;;8.20;99.90;;;;;;4438701;28;658977;-67
2023/03/25 05:22:57;;;;;;;15.45;6.20;;;8.30;99.90;;;;;;4411864;28;658556;-67
2023/03/25 05:25:44;;;;;;;18.07;7.73;;;8.30;99.90;;;;;;4437186;28;657800;-66
2023/03/25 05:28:34;;;;;;;14.90;7.87;;;8.40;99.90;;;;;;4417233;28;657259;-67
2023/03/25 05:31:21;;;;;;;14.33;7.43;;;8.40;99.90;;;;;;4416881;28;658307;-67
2023/03/25 05:34:09;;;;;;;18.97;9.10;;;8.40;99.90;;;;;;4442146;28;658897;-66
2023/03/25 05:36:56;;;;;;;15.93;7.80;;;8.40;99.90;;;;;;4419662;28;658423;-66
2023/03/25 05:39:43;;;;;;;16.47;8.70;;;8.40;99.90;;;;;;4439112;28;658254;-67
2023/03/25 05:42:31;;;;;;;20.10;11.00;;;8.50;99.90;;;;;;4423517;28;658157;-66
2023/03/25 05:45:20;;;;;;;20.10;10.53;;;8.50;99.90;;;;;;4437917;28;659840;-67
2023/03/25 05:48:08;;;;;;;20.13;11.20;;;8.60;99.90;;;;;;4415990;28;659234;-67
2023/03/25 05:50:57;;;;;;;24.13;12.40;;;8.50;99.90;;;;;;4423449;28;658930;-67
2023/03/25 05:53:48;;;;;;;23.67;11.77;;;8.60;99.90;;;;;;4437453;28;658970;-67
2023/03/25 05:56:35;;;;;;;25.88;11.57;;;8.70;99.90;;;;;;4421418;28;658979;-67
2023/03/25 05:59:23;;;;;;;24.57;12.00;;;8.70;99.90;;;;;;4442189;28;659490;-67
2023/03/25 06:02:12;;;;;;;24.70;11.90;;;8.80;99.90;;;;;;4430917;28;658971;-67
2023/03/25 06:04:59;;;;;;;22.57;11.60;;;8.80;99.90;;;;;;4438503;28;658725;-67
2023/03/25 06:07:47;;;;;;;19.43;10.63;;;8.80;99.90;;;;;;4413971;28;659618;-67
2023/03/25 06:10:34;;;;;;;19.80;9.70;;;8.80;99.90;;;;;;4437479;28;659463;-67
2023/03/25 06:13:22;;;;;;;16.00;8.98;;;8.90;99.90;;;;;;4418957;28;658072;-66
2023/03/25 06:16:09;;;;;;;16.93;8.40;;;9.00;99.90;;;;;;4441633;28;657633;-66
2023/03/25 06:18:58;;;;;;;14.80;7.70;;;8.90;99.90;;;;;;4419741;28;658083;-66
2023/03/25 06:21:50;;;;;;;16.73;8.35;;;8.90;99.90;;;;;;4423499;28;657664;-67
2023/03/25 06:24:37;;;;;;;13.80;7.73;;;9.00;99.90;;;;;;4420728;28;658811;-67
2023/03/25 06:27:26;;;;;;;18.77;8.53;;;9.00;99.90;;;;;;4433502;28;658364;-66
2023/03/25 06:30:15;;;;;;;15.77;7.77;;;9.00;99.90;;;;;;4413723;28;657581;-66
2023/03/25 06:33:04;;;;;;;19.73;8.30;;;9.10;99.90;;;;;;4415066;28;659099;-66
2023/03/25 06:35:53;;;;;;;24.03;11.10;;;9.10;99.90;;;;;;4418978;28;657710;-66
2023/03/25 06:38:41;;;;;;;21.83;11.63;;;9.10;99.90;;;;;;4416434;28;658720;-66
2023/03/25 06:41:28;;;;;;;26.40;13.43;;;9.10;99.90;;;;;;4436597;28;659521;-65
2023/03/25 06:44:15;;;;;;;25.17;12.95;;;9.10;99.90;;;;;;4425670;28;658881;-66
2023/03/25 06:47:04;;;;;;;23.50;11.00;;;9.20;99.90;;;;;;4441828;28;659036;-65
2023/03/25 06:49:51;;;;;;;17.53;9.47;;;9.10;99.90;;;;;;4419401;28;658707;-66
2023/03/25 06:52:40;;;;;;;17.97;10.37;;;9.20;99.90;;;;;;4438127;28;658568;-66
2023/03/25 06:55:27;;;;;;;20.57;9.93;;;9.40;99.90;;;;;;4413281;28;659596;-66
2023/03/25 06:58:14;;;;;;;15.27;9.07;;;9.60;99.90;;;;;;4436094;28;658067;-65
2023/03/25 07:01:05;;;;;;;19.57;9.50;;;9.60;99.90;;;;;;4421510;28;658560;-66
2023/03/25 07:03:52;;;;;;;16.30;10.18;;;9.80;99.90;;;;;;4419065;28;658979;-66
2023/03/25 07:06:39;;;;;;;20.17;9.37;;;9.90;99.90;;;;;;4440872;28;658264;-66
2023/03/25 07:09:28;;;;;;;17.77;9.53;;;9.90;99.90;;;;;;4415040;28;657995;-65
2023/03/25 07:12:15;;;;;;;19.77;10.27;;;9.80;99.90;;;;;;4418974;28;657544;-66
2023/03/25 07:15:03;;;;;;;15.40;9.23;;;9.90;99.90;;;;;;4438167;28;659848;-67
2023/03/25 07:17:51;;;;;;;18.30;9.95;;;10.00;99.90;;;;;;4425744;28;657679;-67
2023/03/25 07:20:38;;;;;;;15.57;8.77;;;10.20;99.90;;;;;;4436377;28;659419;-66
2023/03/25 07:23:26;;;;;;;15.87;8.53;;;10.10;99.90;;;;;;4418226;28;658720;-66
2023/03/25 07:26:14;;;;;;;13.90;8.73;;;10.20;99.90;;;;;;4443766;28;659813;-66
2023/03/25 07:29:02;;;;;;;18.83;8.97;;;10.30;99.90;;;;;;4413360;28;658427;-66
2023/03/25 07:31:49;;;;;;;19.53;10.53;;;10.30;99.90;;;;;;4435133;28;658291;-66
2023/03/25 07:34:37;;;;;;;15.70;8.93;;;10.50;99.90;;;;;;4409379;28;660582;-67
2023/03/25 07:37:24;;;;;;;19.57;9.00;;;10.40;99.90;;;;;;4435515;28;659286;-66
2023/03/25 07:40:12;;;;;;;14.30;8.13;;;10.30;99.90;;;;;;4421600;28;658934;-66
2023/03/25 07:43:00;;;;;;;16.83;9.70;;;10.40;99.90;;;;;;4437847;28;658548;-66
2023/03/25 07:45:48;;;;;;;17.60;10.50;;;10.20;99.90;;;;;;4416696;28;659423;-67
2023/03/25 07:48:36;;;;;;;21.47;12.13;;;10.30;99.90;;;;;;4424073;28;659603;-67
2023/03/25 07:51:23;;;;;;;23.17;12.17;;;10.40;99.90;;;;;;4437894;28;660162;-67
2023/03/25 07:54:10;;;;;;;20.00;10.67;;;10.70;99.90;;;;;;4419149;28;660188;-67
2023/03/25 07:56:59;;;;;;;18.80;9.57;;;11.00;99.90;;;;;;4436565;28;660450;-66
2023/03/25 07:59:47;;;;;;;16.87;10.93;;;11.20;99.90;;;;;;4418692;28;659020;-67
2023/03/25 08:02:35;;;;;;;23.20;11.40;;;11.30;99.90;;;;;;4434263;28;659866;-66
2023/03/25 08:05:22;;;;;;;25.10;11.73;;;11.70;99.90;;;;;;4411602;28;661495;-67
2023/03/25 08:08:09;;;;;;;22.20;12.17;;;11.80;99.90;;;;;;4430861;28;659500;-67
2023/03/25 08:10:57;;;;;;;18.50;9.87;;;12.10;99.90;;;;;;4420188;28;659540;-68
2023/03/25 08:13:44;;;;;;;18.97;11.37;;;12.00;99.90;;;;;;4441508;28;659040;-66
2023/03/25 08:16:32;;;;;;;17.20;9.87;;;12.10;99.90;;;;;;4419433;28;659719;-67
2023/03/25 08:19:20;;;;;;;17.87;10.43;;;11.90;99.90;;;;;;4433932;28;658771;-67
2023/03/25 08:22:08;;;;;;;25.20;11.80;;;11.90;99.90;;;;;;4436851;28;660443;-65
2023/03/25 08:24:55;;;;;;;20.57;10.87;;;11.70;99.90;;;;;;4425518;28;659836;-67
2023/03/25 08:27:42;;;;;;;15.83;9.60;;;11.70;99.90;;;;;;4442674;28;660683;-66
2023/03/25 08:30:30;;;;;;;17.10;9.30;;;11.90;99.90;;;;;;4443693;28;658173;-67
2023/03/25 08:33:19;;;;;;;17.67;8.97;;;12.00;99.90;;;;;;4441107;28;658742;-66
2023/03/25 08:36:08;;;;;;;10.13;5.83;;;11.90;99.90;;;;;;4420722;28;658676;-66
2023/03/25 08:38:56;;;;;;;10.37;5.63;;;12.10;99.90;;;;;;4417756;28;658946;-67
2023/03/25 08:41:43;;;;;;;11.63;5.73;;;12.40;99.90;;;;;;4434884;28;659762;-66
2023/03/25 08:44:30;;;;;;;9.73;5.17;;;12.80;99.90;;;;;;4415116;28;658550;-67
2023/03/25 08:47:17;;;;;;;9.03;4.37;;;12.80;99.90;;;;;;4439278;28;657544;-66
2023/03/25 08:50:07;;;;;;;11.60;4.40;;;13.00;99.90;;;;;;4441689;28;657961;-71
2023/03/25 08:52:57;;;;;;;8.73;4.23;;;13.10;99.90;;;;;;4431254;28;658479;-68
2023/03/25 08:55:44;;;;;;;11.37;4.10;;;13.40;99.90;;;;;;4407041;28;657778;-67
2023/03/25 08:58:32;;;;;;;9.43;3.43;;;13.50;99.90;;;;;;4419092;28;658455;-66
2023/03/25 09:01:20;;;;;;;10.40;3.63;;;13.10;99.90;;;;;;4435615;28;657781;-67
2023/03/25 09:04:08;;;;;;;9.50;3.30;;;13.20;99.90;;;;;;4418548;28;659289;-67
2023/03/25 09:06:57;;;;;;;7.40;2.83;;;13.30;99.90;;;;;;4433673;28;658775;-67
2023/03/25 09:09:44;;;;;;;10.47;3.27;;;13.40;99.90;;;;;;4441091;28;657263;-67
2023/03/25 09:12:31;;;;;;;6.33;3.23;;;13.30;99.90;;;;;;4418743;28;659452;-67
2023/03/25 09:15:19;;;;;;;5.90;2.93;;;13.10;99.90;;;;;;4446764;28;658475;-67
2023/03/25 09:18:07;;;;;;;8.27;2.90;;;13.60;99.90;;;;;;4420299;28;658314;-67
2023/03/25 09:20:58;;;;;;;8.50;3.33;;;13.80;99.90;;;;;;4443460;28;657733;-67
2023/03/25 09:23:47;;;;;;;9.03;3.60;;;13.90;99.90;;;;;;4409504;28;657903;-67
2023/03/25 09:26:34;;;;;;;7.60;3.13;;;13.60;99.90;;;;;;4440231;28;657500;-66
2023/03/25 09:29:21;;;;;;;10.23;3.57;;;13.60;99.90;;;;;;4424449;28;657693;-66
2023/03/25 09:32:09;;;;;;;9.87;4.07;;;13.60;99.90;;;;;;4439648;28;659318;-67
2023/03/25 09:34:56;;;;;;;8.83;3.47;;;13.70;99.90;;;;;;4419584;28;657939;-68
2023/03/25 09:37:43;;;;;;;9.00;3.93;;;13.90;99.90;;;;;;4446140;28;658592;-67
2023/03/25 09:40:32;;;;;;;7.83;3.67;;;14.00;99.90;;;;;;4420312;28;658098;-68
2023/03/25 09:43:29;;;;;;;10.30;3.73;;;14.10;99.90;;;;;;4436793;28;657924;-67
2023/03/25 09:46:16;;;;;;;8.27;3.90;;;14.00;99.90;;;;;;4419168;28;659031;-67
2023/03/25 09:49:03;;;;;;;8.33;3.40;;;13.90;99.90;;;;;;4445314;28;658847;-70
2023/03/25 09:51:51;;;;;;;7.17;3.03;;;14.50;99.90;;;;;;4421130;28;658063;-69
2023/03/25 09:54:39;;;;;;;5.63;2.73;;;14.40;99.90;;;;;;4448085;28;658024;-66
2023/03/25 09:57:29;;;;;;;7.90;2.92;;;14.30;99.90;;;;;;4422741;28;657530;-66
2023/03/25 10:00:18;;;;;;;6.57;2.73;;;14.10;99.90;;;;;;4422542;28;657585;-69
2023/03/25 10:03:11;;;;;;;5.93;2.90;;;13.90;99.90;;;;;;4431037;28;657778;-68
2023/03/25 10:06:07;;;;;;;4.43;2.73;;;13.60;99.90;;;;;;4417269;28;658067;-66
2023/03/25 10:09:06;;;;;;;7.13;3.43;;;14.00;99.90;;;;;;4420723;28;657825;-68
2023/03/25 10:11:56;;;;;;;6.33;3.30;;;14.50;99.90;;;;;;4416198;28;657916;-67
2023/03/25 10:14:52;;;;;;;5.23;3.23;;;14.40;99.90;;;;;;4403134;28;657792;-67
2023/03/25 10:17:43;;;;;;;12.20;3.20;;;14.40;99.90;;;;;;4424203;28;657392;-66
2023/03/25 10:20:39;;;;;;;10.00;3.23;;;14.30;99.90;;;;;;4395939;28;659325;-68
2023/03/25 10:23:30;;;;;;;5.63;3.10;;;14.40;99.90;;;;;;4399299;28;658875;-67
2023/03/25 10:26:19;;;;;;;5.03;3.00;;;14.70;99.90;;;;;;4420331;28;658046;-67
2023/03/25 10:29:09;;;;;;;7.87;3.57;;;14.80;99.90;;;;;;4419148;28;657450;-66
2023/03/25 10:32:01;;;;;;;9.10;2.37;;;15.00;99.90;;;;;;4413250;28;658534;-66
2023/03/25 10:34:50;;;;;;;5.23;2.70;;;15.20;97.50;;;;;;4417170;28;658565;-68
2023/03/25 10:37:40;;;;;;;5.30;2.30;;;15.00;94.10;;;;;;4412139;28;658695;-66
2023/03/25 10:40:29;;;;;;;6.03;2.40;;;14.70;97.10;;;;;;4412130;28;658228;-65
2023/03/25 10:43:21;;;;;;;5.27;2.33;;;14.80;99.90;;;;;;4418796;28;658573;-70
2023/03/25 10:46:21;;;;;;;6.37;2.80;;;15.60;94.30;;;;;;4412071;28;658286;-69
2023/03/25 10:49:10;;;;;;;4.43;2.57;;;15.70;92.10;;;;;;4409651;28;657705;-69
2023/03/25 10:51:58;;;;;;;4.80;2.47;;;15.70;91.10;;;;;;4413718;28;658141;-69
2023/03/25 10:54:46;;;;;;;4.60;2.20;;;16.20;93.00;;;;;;4421251;28;658258;-68
2023/03/25 10:57:34;;;;;;;3.97;2.23;;;16.40;90.20;;;;;;4440972;28;658823;-70
2023/03/25 11:00:23;;;;;;;3.67;1.60;;;16.30;88.70;;;;;;4422557;28;658339;-67
2023/03/25 11:03:12;;;;;;;3.50;1.50;;;15.70;87.40;;;;;;4412030;28;658145;-68
2023/03/25 11:06:02;;;;;;;5.00;1.20;;;15.60;90.30;;;;;;4427337;28;657732;-70
2023/03/25 11:08:58;;;;;;;8.50;2.73;;;15.30;87.60;;;;;;4440365;28;657579;-68
2023/03/25 11:11:45;;;;;;;3.33;1.40;;;14.30;87.80;;;;;;4391655;28;657591;-69
2023/03/25 11:14:37;;;;;;;4.37;2.47;;;14.00;93.70;;;;;;4438701;28;658665;-65
2023/03/25 11:17:26;;;;;;;8.77;2.80;;;13.30;99.90;;;;;;4414591;28;657833;-66
2023/03/25 11:20:18;;;;;;;6.47;3.93;;;12.20;99.90;;;;;;4415809;28;658000;-66
2023/03/25 11:23:08;;;;;;;7.80;4.30;;;11.50;99.90;;;;;;4393040;28;657700;-67
2023/03/25 11:25:55;;;;;;;7.70;4.00;;;10.60;99.90;;;;;;4428325;28;657745;-67
2023/03/25 11:28:44;;;;;;;9.73;4.90;;;10.30;99.90;;;;;;4440256;28;658363;-67
2023/03/25 11:31:34;;;;;;;9.57;5.40;;;10.10;99.90;;;;;;4418580;28;657828;-66
2023/03/25 11:34:21;;;;;;;9.37;5.80;;;10.20;99.90;;;;;;4412168;28;658408;-67
2023/03/25 11:37:15;;;;;;;8.57;5.70;;;10.40;99.90;;;;;;4440296;28;658932;-66
2023/03/25 11:40:10;;;;;;;11.73;5.90;;;10.80;99.90;;;;;;4407092;28;657710;-66
2023/03/25 11:42:58;;;;;;;16.50;9.43;;;11.10;99.90;;;;;;4391073;28;658870;-66
2023/03/25 11:45:45;;;;;;;17.20;12.03;;;11.50;99.90;;;;;;4423287;28;658833;-67
2023/03/25 11:48:32;;;;;;;18.43;11.60;;;12.00;99.90;;;;;;4439711;28;659412;-66
2023/03/25 11:51:21;;;;;;;11.57;7.80;;;12.90;99.90;;;;;;4437978;28;659792;-67
2023/03/25 11:54:11;;;;;;;12.03;8.07;;;13.10;99.90;;;;;;4434652;28;659346;-66
2023/03/25 11:56:59;;;;;;;14.40;9.17;;;13.10;99.90;;;;;;4411037;28;658729;-66
2023/03/25 11:59:47;;;;;;;13.10;8.77;;;13.20;99.90;;;;;;4416780;28;659479;-66
2023/03/25 12:02:37;;;;;;;11.83;8.03;;;12.70;99.90;;;;;;4438887;28;659183;-66
2023/03/25 12:05:24;;;;;;;12.00;8.07;;;12.30;99.90;;;;;;4415869;28;658542;-66
2023/03/25 12:08:14;;;;;;;8.93;6.73;;;12.40;99.90;;;;;;4413329;28;658556;-66
2023/03/25 12:11:03;;;;;;;12.53;6.83;;;12.60;99.90;;;;;;4418496;28;657615;-66
2023/03/25 12:14:22;;;;;;;10.17;7.27;;;12.60;99.90;;;;;;4422941;28;658317;-66
2023/03/25 12:17:14;;;;;;;10.60;6.37;;;12.60;99.90;;;;;;4405240;28;658731;-66
2023/03/25 12:20:07;;;;;;;9.53;6.27;;;13.00;99.90;;;;;;4416140;28;658684;-67
2023/03/25 12:23:00;;;;;;;11.73;5.83;;;13.00;99.90;;;;;;4431126;28;657596;-66
2023/03/25 12:25:53;;;;;;;7.90;4.20;;;13.60;99.90;;;;;;4395887;28;659368;-67
2023/03/25 12:29:04;;;;;;;9.33;4.20;;;13.80;99.90;;;;;;4425573;28;657540;-66
2023/03/25 12:32:03;;;;;;;6.23;3.93;;;13.80;99.90;;;;;;4406077;28;658067;-67
2023/03/25 12:34:57;;;;;;;9.40;4.13;;;13.40;99.90;;;;;;4404740;28;657594;-66
2023/03/25 12:37:55;;;;;;;8.27;4.03;;;13.70;99.90;;;;;;4419279;28;658061;-66
2023/03/25 12:40:56;;;;;;;7.50;3.97;;;14.20;99.90;;;;;;4391782;28;659198;-66
2023/03/25 12:43:57;;;;;;;6.37;4.33;;;14.70;99.90;;;;;;4404495;28;657550;-66
2023/03/25 12:46:58;;;;;;;8.37;3.87;;;14.40;99.90;;;;;;4407369;28;657579;-69
2023/03/25 12:50:01;;;;;;;9.57;3.80;;;14.00;99.90;;;;;;4399626;28;657815;-66
2023/03/25 12:52:53;;;;;;;7.57;3.20;;;13.60;99.90;;;;;;4414401;28;658196;-69
2023/03/25 12:55:50;;;;;;;6.23;2.53;;;14.10;99.90;;;;;;4397153;28;657794;-68
2023/03/25 12:59:01;;;;;;;4.87;2.03;;;13.90;99.90;;;;;;4424996;28;657902;-67
2023/03/25 13:01:53;;;;;;;3.43;1.17;;;13.50;99.90;;;;;;4382090;28;658615;-69
2023/03/25 13:04:50;;;;;;;6.60;1.80;;;13.50;99.90;;;;;;4397040;28;657490;-70
2023/03/25 13:07:39;;;;;;;3.27;1.33;;;13.60;99.90;;;;;;4418213;28;657364;-68
2023/03/25 13:10:28;;;;;;;3.07;1.30;;;13.50;99.90;;;;;;4419039;28;657496;-67
2023/03/25 13:13:17;;;;;;;3.63;1.60;;;13.10;99.90;;;;;;4422063;28;658958;-69
2023/03/25 13:16:06;;;;;;;5.93;1.40;;;13.40;99.90;;;;;;4435109;28;657751;-69
2023/03/25 13:18:55;;;;;;;4.07;1.40;;;13.80;99.90;;;;;;4415910;28;658854;-70
2023/03/25 13:21:45;;;;;;;5.10;1.30;;;13.70;99.90;;;;;;4413136;28;657578;-69
2023/03/25 13:24:41;;;;;;;2.53;1.13;;;13.40;99.90;;;;;;4416162;28;658604;-70
2023/03/25 13:27:31;;;;;;;3.37;1.63;;;13.00;99.90;;;;;;4412481;28;657847;-67
2023/03/25 13:30:22;;;;;;;6.57;1.20;;;12.50;99.90;;;;;;4418883;28;657578;-66
2023/03/25 13:33:12;;;;;;;5.27;1.40;;;12.30;99.90;;;;;;4432457;28;659236;-67
2023/03/25 13:36:02;;;;;;;4.20;1.67;;;12.60;99.90;;;;;;4439263;28;657253;-66
2023/03/25 13:38:52;;;;;;;3.80;1.90;;;12.70;99.90;;;;;;4413919;28;657692;-66
2023/03/25 13:41:40;;;;;;;4.43;1.30;;;12.60;99.90;;;;;;4414898;28;657903;-66
2023/03/25 13:44:28;;;;;;;6.22;1.75;;;12.30;99.90;;;;;;4412852;28;658244;-67
2023/03/25 13:47:18;;;;;;;4.67;1.70;;;12.80;99.90;;;;;;4413872;28;658192;-67
2023/03/25 13:50:07;;;;;;;3.67;1.57;;;12.90;99.90;;;;;;4405038;28;657807;-67
2023/03/25 13:52:57;;;;;;;2.93;1.70;;;13.00;99.90;;;;;;4428120;28;657381;-67
2023/03/25 13:55:49;;;;;;;4.27;1.57;;;13.10;99.90;;;;;;4424106;28;657346;-67
2023/03/25 13:58:46;;;;;;;3.67;1.80;;;12.60;99.90;;;;;;4406000;28;657801;-67
2023/03/25 14:01:45;;;;;;;4.83;2.00;;;12.30;99.90;;;;;;4383295;28;657846;-67
2023/03/25 14:04:44;;;;;;;6.50;2.47;;;12.40;99.90;;;;;;4351753;28;657915;-67
2023/03/25 14:07:49;;;;;;;5.60;2.03;;;12.40;99.90;;;;;;4389304;28;657600;-67
2023/03/25 14:10:53;;;;;;;6.20;2.00;;;12.30;99.90;;;;;;4401066;28;657645;-67
2023/03/25 14:13:42;;;;;;;5.13;2.17;;;12.40;99.90;;;;;;4378018;28;657646;-66
2023/03/25 14:16:30;;;;;;;4.47;2.17;;;12.40;99.90;;;;;;4419069;28;658373;-66
2023/03/25 14:19:20;;;;;;;4.33;1.90;;;13.10;99.90;;;;;;4380170;28;659104;-67
2023/03/25 14:22:08;;;;;;;6.00;1.90;;;13.90;99.90;;;;;;4391010;28;658506;-66
2023/03/25 14:24:55;;;;;;;5.30;2.10;;;13.90;99.90;;;;;;4394944;28;657629;-67
2023/03/25 14:27:47;;;;;;;4.50;2.20;;;13.30;99.90;;;;;;4408820;28;659034;-65
2023/03/25 14:30:35;;;;;;;5.57;2.40;;;13.20;99.90;;;;;;4405310;28;657722;-67